createdAt,value
2018-02-09T00:00:43.350Z,84.02
2018-02-09T00:03:09.126Z,83.96
2018-02-09T00:05:34.919Z,84.49
2018-02-09T00:08:01.105Z,84.55
2018-02-09T00:10:26.931Z,84.15
2018-02-09T00:12:52.716Z,83.84
2018-02-09T00:15:18.524Z,84.29
2018-02-09T00:17:44.314Z,84.99
2018-02-09T00:20:10.106Z,84.61
2018-02-09T00:22:48.602Z,84.52
2018-02-09T00:25:14.390Z,84.75
2018-02-09T00:27:40.186Z,84.93
2018-02-09T00:30:05.991Z,84.90
2018-02-09T00:32:31.771Z,84.85
2018-02-09T00:34:57.567Z,85.43
2018-02-09T00:37:23.375Z,86.20
2018-02-09T00:39:49.202Z,85.03
2018-02-09T00:42:15.010Z,85.25
2018-02-09T00:44:41.178Z,85.73
2018-02-09T00:47:06.966Z,86.04
2018-02-09T00:49:32.763Z,86.24
2018-02-09T00:51:58.570Z,86.13
2018-02-09T00:54:24.374Z,85.43
2018-02-09T00:56:50.174Z,85.72
2018-02-09T00:59:15.988Z,86.03
2018-02-09T01:01:41.787Z,86.46
2018-02-09T01:04:07.586Z,86.07
2018-02-09T01:06:33.398Z,86.31
2018-02-09T01:08:59.185Z,85.88
2018-02-09T01:11:24.974Z,85.80
2018-02-09T01:13:50.897Z,86.18
2018-02-09T01:16:16.702Z,87.22
2018-02-09T01:18:42.487Z,86.65
2018-02-09T01:21:08.274Z,86.63
2018-02-09T01:23:34.055Z,86.81
2018-02-09T01:25:59.842Z,87.25
2018-02-09T01:28:25.645Z,87.22
2018-02-09T01:30:58.329Z,87.25
2018-02-09T01:33:24.130Z,86.80
2018-02-09T01:35:50.123Z,86.69
2018-02-09T01:38:15.906Z,86.88
2018-02-09T01:40:42.050Z,86.64
2018-02-09T01:43:07.858Z,87.10
2018-02-09T01:45:33.657Z,87.17
2018-02-09T01:47:59.446Z,87.28
2018-02-09T01:50:25.251Z,87.58
2018-02-09T01:52:51.034Z,87.59
2018-02-09T01:55:16.815Z,88.13
2018-02-09T01:57:42.805Z,88.35
2018-02-09T02:00:08.611Z,88.38
2018-02-09T02:02:34.410Z,88.32
2018-02-09T02:05:00.447Z,88.59
2018-02-09T02:07:26.228Z,88.53
2018-02-09T02:09:52.028Z,88.74
2018-02-09T02:12:17.882Z,88.75
2018-02-09T02:14:43.673Z,88.43
2018-02-09T02:17:09.454Z,87.85
2018-02-09T02:19:35.369Z,88.32
2018-02-09T02:22:01.138Z,88.67
2018-02-09T02:24:26.922Z,88.46
2018-02-09T02:26:52.729Z,88.43
2018-02-09T02:29:18.513Z,88.65
2018-02-09T02:31:44.277Z,88.92
2018-02-09T02:34:10.178Z,88.82
2018-02-09T02:36:36.006Z,89.27
2018-02-09T02:39:01.829Z,89.22
2018-02-09T02:41:27.725Z,89.20
2018-02-09T02:43:53.501Z,89.14
2018-02-09T02:46:19.269Z,89.69
2018-02-09T02:48:45.275Z,90.17
2018-02-09T02:51:11.058Z,90.49
2018-02-09T02:53:36.834Z,90.59
2018-02-09T02:56:02.645Z,90.25
2018-02-09T02:58:28.419Z,90.46
2018-02-09T03:00:54.433Z,89.94
2018-02-09T03:03:20.217Z,89.87
2018-02-09T03:05:45.998Z,89.73
2018-02-09T03:08:11.791Z,90.00
2018-02-09T03:10:37.601Z,90.11
2018-02-09T03:13:03.376Z,90.22
2018-02-09T03:15:29.417Z,90.11
2018-02-09T03:17:55.190Z,90.69
2018-02-09T03:20:21.000Z,90.75
2018-02-09T03:22:46.762Z,90.40
2018-02-09T03:25:12.573Z,90.30
2018-02-09T03:27:38.387Z,90.59
2018-02-09T03:30:04.218Z,90.22
2018-02-09T03:32:30.012Z,90.04
2018-02-09T03:34:55.794Z,90.63
2018-02-09T03:37:21.579Z,90.52
2018-02-09T03:39:47.370Z,90.45
2018-02-09T03:42:13.145Z,90.36
2018-02-09T03:44:39.292Z,90.46
2018-02-09T03:47:05.058Z,90.41
2018-02-09T03:49:30.845Z,90.82
2018-02-09T03:51:56.757Z,91.20
2018-02-09T03:54:29.502Z,91.32
2018-02-09T03:56:55.269Z,91.17
2018-02-09T03:59:21.058Z,91.35
2018-02-09T04:01:46.830Z,91.10
2018-02-09T04:04:12.599Z,90.96
2018-02-09T04:06:38.385Z,90.80
2018-02-09T04:09:04.206Z,90.80
2018-02-09T04:11:29.982Z,90.71
2018-02-09T04:13:55.769Z,90.75
2018-02-09T04:16:21.542Z,90.88
2018-02-09T04:18:47.366Z,90.50
2018-02-09T04:21:13.141Z,90.51
2018-02-09T04:23:38.914Z,90.46
2018-02-09T04:26:04.677Z,90.92
2018-02-09T04:28:30.470Z,90.65
2018-02-09T04:30:56.329Z,90.89
2018-02-09T04:33:22.105Z,90.55
2018-02-09T04:35:47.881Z,90.79
2018-02-09T04:38:13.648Z,91.21
2018-02-09T04:40:39.442Z,90.97
2018-02-09T04:43:05.216Z,90.63
2018-02-09T04:45:30.990Z,90.79
2018-02-09T04:47:56.790Z,91.18
2018-02-09T04:50:22.583Z,91.04
2018-02-09T04:52:48.373Z,91.00
2018-02-09T04:55:14.473Z,90.87
2018-02-09T04:57:40.246Z,90.83
2018-02-09T05:00:06.135Z,91.02
2018-02-09T05:02:31.921Z,90.51
2018-02-09T05:04:57.693Z,90.29
2018-02-09T05:07:23.465Z,90.72
2018-02-09T05:09:49.249Z,90.84
2018-02-09T05:12:15.018Z,90.80
2018-02-09T05:14:40.789Z,90.94
2018-02-09T05:17:06.591Z,90.87
2018-02-09T05:19:32.371Z,91.04
2018-02-09T05:21:58.150Z,91.05
2018-02-09T05:24:23.949Z,90.72
2018-02-09T05:26:49.726Z,90.44
2018-02-09T05:29:15.493Z,90.44
2018-02-09T05:31:41.314Z,90.68
2018-02-09T05:34:07.085Z,90.93
2018-02-09T05:36:32.894Z,91.09
2018-02-09T05:38:58.703Z,91.35
2018-02-09T05:41:24.476Z,90.84
2018-02-09T05:43:50.269Z,90.69
2018-02-09T05:46:16.249Z,90.84
2018-02-09T05:48:42.018Z,90.94
2018-02-09T05:51:07.806Z,91.46
2018-02-09T05:53:33.638Z,91.23
2018-02-09T05:55:59.421Z,91.05
2018-02-09T05:58:25.201Z,90.92
2018-02-09T06:00:51.061Z,90.93
2018-02-09T06:03:16.847Z,90.91
2018-02-09T06:05:42.629Z,90.81
2018-02-09T06:08:08.617Z,91.44
2018-02-09T06:10:34.394Z,91.54
2018-02-09T06:13:00.174Z,91.54
2018-02-09T06:15:25.974Z,91.62
2018-02-09T06:17:51.748Z,91.58
2018-02-09T06:20:17.981Z,91.75
2018-02-09T06:22:44.137Z,91.55
2018-02-09T06:25:09.903Z,91.08
2018-02-09T06:27:35.684Z,91.45
2018-02-09T06:30:01.493Z,91.45
2018-02-09T06:32:27.269Z,91.58
2018-02-09T06:34:53.126Z,91.40
2018-02-09T06:37:18.917Z,91.64
2018-02-09T06:39:44.724Z,91.82
2018-02-09T06:42:10.498Z,91.86
2018-02-09T06:44:36.314Z,91.46
2018-02-09T06:47:02.126Z,91.47
2018-02-09T06:49:27.906Z,91.13
2018-02-09T06:51:53.970Z,91.59
2018-02-09T06:54:19.746Z,91.55
2018-02-09T06:56:45.514Z,91.39
2018-02-09T06:59:11.372Z,91.61
2018-02-09T07:01:37.153Z,90.98
2018-02-09T07:04:02.959Z,91.41
2018-02-09T07:06:28.782Z,92.03
2018-02-09T07:08:54.557Z,91.91
2018-02-09T07:11:20.334Z,91.82
2018-02-09T07:13:46.331Z,91.82
2018-02-09T07:16:12.115Z,91.87
2018-02-09T07:18:37.901Z,91.94
2018-02-09T07:21:03.729Z,91.47
2018-02-09T07:23:29.511Z,91.39
2018-02-09T07:25:55.278Z,91.10
2018-02-09T07:28:21.087Z,90.81
2018-02-09T07:30:46.943Z,90.62
2018-02-09T07:33:19.693Z,90.57
2018-02-09T07:35:45.489Z,90.92
2018-02-09T07:38:11.282Z,90.74
2018-02-09T07:40:37.057Z,90.85
2018-02-09T07:43:02.881Z,90.78
2018-02-09T07:45:28.653Z,90.55
2018-02-09T07:47:54.444Z,90.82
2018-02-09T07:50:21.062Z,91.04
2018-02-09T07:52:46.844Z,90.56
2018-02-09T07:55:12.629Z,89.94
2018-02-09T07:57:38.490Z,90.17
2018-02-09T08:00:04.299Z,90.10
2018-02-09T08:02:30.115Z,90.44
2018-02-09T08:04:56.094Z,90.15
2018-02-09T08:07:21.869Z,89.92
2018-02-09T08:09:47.641Z,89.86
2018-02-09T08:12:13.748Z,88.99
2018-02-09T08:14:39.526Z,89.18
2018-02-09T08:17:05.313Z,89.08
2018-02-09T08:19:32.570Z,89.09
2018-02-09T08:21:58.415Z,89.15
2018-02-09T08:24:25.082Z,89.34
2018-02-09T08:26:51.119Z,88.69
2018-02-09T08:29:19.210Z,88.77
2018-02-09T08:31:45.830Z,88.65
2018-02-09T08:34:13.082Z,87.80
2018-02-09T08:36:39.617Z,88.21
2018-02-09T08:39:06.970Z,87.92
2018-02-09T08:41:32.833Z,87.82
2018-02-09T08:43:58.613Z,88.15
2018-02-09T08:46:24.386Z,87.98
2018-02-09T08:48:50.175Z,86.77
2018-02-09T08:51:15.977Z,86.77
2018-02-09T08:53:41.765Z,86.86
2018-02-09T08:56:07.577Z,86.83
2018-02-09T08:58:33.367Z,85.60
2018-02-09T09:00:59.141Z,86.43
2018-02-09T09:03:24.978Z,91.72
2018-02-09T09:05:50.778Z,86.02
2018-02-09T09:08:16.562Z,85.78
2018-02-09T09:10:42.351Z,88.19
2018-02-09T09:13:08.126Z,85.42
2018-02-09T09:15:33.922Z,83.59
2018-02-09T09:17:59.744Z,84.41
2018-02-09T09:20:25.513Z,84.33
2018-02-09T09:22:51.341Z,83.59
2018-02-09T09:25:17.143Z,83.57
2018-02-09T09:27:42.925Z,83.91
2018-02-09T09:30:08.707Z,83.67
2018-02-09T09:32:34.863Z,83.27
2018-02-09T09:35:00.652Z,83.25
2018-02-09T09:37:26.418Z,81.78
2018-02-09T09:39:52.209Z,82.52
2018-02-09T09:42:17.977Z,81.86
2018-02-09T09:44:43.809Z,81.78
2018-02-09T09:47:09.590Z,81.42
2018-02-09T09:49:35.373Z,80.63
2018-02-09T09:52:01.156Z,80.80
2018-02-09T09:54:26.964Z,80.91
2018-02-09T09:56:52.780Z,80.49
2018-02-09T09:59:18.560Z,79.70
2018-02-09T10:01:44.654Z,80.09
2018-02-09T10:04:10.443Z,79.93
2018-02-09T10:06:36.251Z,79.08
2018-02-09T10:09:02.446Z,79.22
2018-02-09T10:11:28.230Z,79.10
2018-02-09T10:13:53.997Z,78.77
2018-02-09T10:16:19.999Z,78.41
2018-02-09T10:18:45.798Z,78.76
2018-02-09T10:21:11.580Z,78.15
2018-02-09T10:23:37.426Z,78.48
2018-02-09T10:26:03.220Z,77.86
2018-02-09T10:28:28.985Z,77.62
2018-02-09T10:30:54.776Z,76.33
2018-02-09T10:33:20.618Z,76.41
2018-02-09T10:35:46.819Z,75.93
2018-02-09T10:38:12.730Z,75.50
2018-02-09T10:40:38.895Z,74.94
2018-02-09T10:43:04.654Z,75.02
2018-02-09T10:45:31.208Z,74.79
2018-02-09T10:47:57.103Z,74.97
2018-02-09T10:50:23.797Z,74.88
2018-02-09T10:52:50.013Z,75.49
2018-02-09T10:55:16.482Z,75.28
2018-02-09T10:57:42.359Z,74.20
2018-02-09T11:00:08.562Z,73.38
2018-02-09T11:02:34.350Z,73.30
2018-02-09T11:05:00.793Z,73.71
2018-02-09T11:07:26.605Z,74.38
2018-02-09T11:09:52.883Z,73.03
2018-02-09T11:12:21.298Z,72.29
2018-02-09T11:14:47.148Z,72.17
2018-02-09T11:17:13.454Z,72.84
2018-02-09T11:19:39.226Z,72.60
2018-02-09T11:22:05.036Z,72.61
2018-02-09T11:24:30.817Z,72.34
2018-02-09T11:26:56.781Z,72.34
2018-02-09T11:29:22.575Z,72.21
2018-02-09T11:31:48.347Z,72.11
2018-02-09T11:34:14.119Z,71.40
2018-02-09T11:36:39.930Z,74.96
2018-02-09T11:39:05.721Z,72.33
2018-02-09T11:41:31.518Z,73.40
2018-02-09T11:43:57.310Z,73.52
2018-02-09T11:46:23.102Z,71.76
2018-02-09T11:48:48.894Z,70.40
2018-02-09T11:51:14.687Z,71.86
2018-02-09T11:53:40.662Z,71.37
2018-02-09T11:56:06.446Z,73.04
2018-02-09T11:58:32.515Z,70.77
2018-02-09T12:00:58.790Z,69.46
2018-02-09T12:03:25.117Z,69.76
2018-02-09T12:05:50.906Z,71.17
2018-02-09T12:08:17.001Z,70.85
2018-02-09T12:10:42.795Z,70.33
2018-02-09T12:13:08.706Z,70.05
2018-02-09T12:15:34.532Z,68.50
2018-02-09T12:18:00.356Z,69.75
2018-02-09T12:20:26.151Z,68.45
2018-02-09T12:22:51.933Z,68.18
2018-02-09T12:25:17.740Z,68.53
2018-02-09T12:27:43.536Z,68.51
2018-02-09T12:30:09.318Z,67.74
2018-02-09T12:32:35.516Z,68.47
2018-02-09T12:35:01.607Z,68.28
2018-02-09T12:37:27.391Z,67.93
2018-02-09T12:39:53.189Z,67.37
2018-02-09T12:42:18.976Z,67.28
2018-02-09T12:44:44.762Z,65.56
2018-02-09T12:47:10.578Z,65.53
2018-02-09T12:49:36.353Z,65.90
2018-02-09T12:52:02.134Z,64.31
2018-02-09T12:54:27.942Z,62.71
2018-02-09T12:56:53.753Z,63.53
2018-02-09T12:59:19.536Z,64.25
2018-02-09T13:01:45.347Z,64.64
2018-02-09T13:04:11.139Z,65.11
2018-02-09T13:06:36.919Z,63.64
2018-02-09T13:09:02.776Z,61.05
2018-02-09T13:11:28.558Z,59.11
2018-02-09T13:13:54.325Z,59.87
2018-02-09T13:16:20.133Z,60.55
2018-02-09T13:18:47.822Z,61.39
2018-02-09T13:21:13.614Z,60.91
2018-02-09T13:23:51.867Z,60.30
2018-02-09T13:26:17.659Z,57.52
2018-02-09T13:28:55.966Z,57.61
2018-02-09T13:31:21.759Z,57.76
2018-02-09T13:33:47.543Z,56.30
2018-02-09T13:36:14.239Z,57.57
2018-02-09T13:38:40.031Z,57.66
2018-02-09T13:41:05.810Z,56.67
2018-02-09T13:43:31.694Z,55.39
2018-02-09T13:45:57.470Z,57.29
2018-02-09T13:48:30.200Z,58.05
2018-02-09T13:50:56.031Z,57.18
2018-02-09T13:53:21.807Z,57.31
2018-02-09T13:55:47.590Z,57.55
2018-02-09T13:58:13.482Z,57.85
2018-02-09T14:00:39.271Z,58.15
2018-02-09T14:05:37.714Z,56.56
2018-02-09T14:08:03.494Z,56.66
2018-02-09T14:10:29.274Z,57.44
2018-02-09T14:12:55.970Z,59.61
2018-02-09T14:15:21.770Z,58.22
2018-02-09T14:17:47.538Z,58.59
2018-02-09T14:20:13.339Z,59.55
2018-02-09T14:22:39.172Z,59.65
2018-02-09T14:25:04.925Z,59.29
2018-02-09T14:27:30.718Z,59.13
2018-02-09T14:29:56.498Z,61.31
2018-02-09T14:32:22.280Z,61.60
2018-02-09T14:34:48.111Z,62.35
2018-02-09T14:37:13.894Z,63.42
2018-02-09T14:39:39.680Z,63.09
2018-02-09T14:42:05.462Z,62.87
2018-02-09T14:44:31.250Z,63.17
2018-02-09T14:46:57.055Z,62.58
2018-02-09T14:49:22.883Z,63.13
2018-02-09T14:51:48.630Z,63.77
2018-02-09T14:54:14.437Z,64.49
2018-02-09T14:56:40.214Z,64.04
2018-02-09T14:59:12.948Z,64.23
2018-02-09T15:01:38.754Z,63.61
2018-02-09T15:04:04.529Z,63.25
2018-02-09T15:06:30.298Z,63.81
2018-02-09T15:08:56.109Z,63.75
2018-02-09T15:11:21.902Z,63.31
2018-02-09T15:13:47.685Z,63.85
2018-02-09T15:16:13.491Z,63.87
2018-02-09T15:18:39.323Z,63.65
2018-02-09T15:21:05.130Z,78.29
2018-02-09T15:23:31.186Z,71.67
2018-02-09T15:25:56.978Z,68.42
2018-02-09T15:28:22.782Z,67.12
2018-02-09T15:30:48.607Z,57.82
2018-02-09T15:33:14.405Z,61.95
2018-02-09T15:35:40.202Z,60.28
2018-02-09T15:38:06.021Z,54.30
2018-02-09T15:40:31.803Z,58.95
2018-02-09T15:42:57.603Z,59.41
2018-02-09T15:45:23.410Z,57.08
2018-02-09T15:47:49.188Z,56.86
2018-02-09T15:50:14.966Z,52.39
2018-02-09T15:52:47.732Z,56.22
2018-02-09T15:55:13.522Z,57.09
2018-02-09T15:57:39.309Z,55.62
2018-02-09T16:00:05.133Z,55.83
2018-02-09T16:02:30.926Z,57.42
2018-02-09T16:04:56.698Z,58.37
2018-02-09T16:07:22.859Z,60.32
2018-02-09T16:09:48.638Z,59.56
2018-02-09T16:12:14.418Z,60.48
2018-02-09T16:14:40.217Z,59.51
2018-02-09T16:17:06.011Z,60.43
2018-02-09T16:19:31.792Z,60.92
2018-02-09T16:21:57.674Z,66.01
2018-02-09T16:24:23.449Z,68.66
2018-02-09T16:26:49.251Z,70.22
2018-02-09T16:29:15.046Z,70.62
2018-02-09T16:31:40.838Z,71.67
2018-02-09T16:34:06.619Z,72.77
2018-02-09T16:36:32.422Z,73.42
2018-02-09T16:38:58.199Z,73.70
2018-02-09T16:41:23.983Z,74.47
2018-02-09T16:43:49.782Z,74.57
2018-02-09T16:46:15.563Z,74.97
2018-02-09T16:48:41.342Z,75.50
2018-02-09T16:51:07.114Z,75.97
2018-02-09T16:53:32.924Z,76.51
2018-02-09T16:55:59.123Z,77.01
2018-02-09T16:58:24.906Z,76.82
2018-02-09T17:00:50.685Z,77.03
2018-02-09T17:03:16.575Z,77.36
2018-02-09T17:05:42.350Z,77.44
2018-02-09T17:08:08.132Z,77.97
2018-02-09T17:10:33.999Z,78.43
2018-02-09T17:12:59.783Z,77.98
2018-02-09T17:15:25.577Z,78.49
2018-02-09T17:17:51.392Z,78.85
2018-02-09T17:20:17.209Z,78.65
2018-02-09T17:22:42.981Z,78.94
2018-02-09T17:25:08.788Z,78.99
2018-02-09T17:27:34.566Z,79.11
2018-02-09T17:30:00.354Z,79.55
2018-02-09T17:32:26.395Z,79.30
2018-02-09T17:34:52.183Z,79.78
2018-02-09T17:37:17.993Z,79.83
2018-02-09T17:39:43.842Z,80.12
2018-02-09T17:42:09.631Z,79.95
2018-02-09T17:44:35.411Z,79.93
2018-02-09T17:47:01.527Z,79.33
2018-02-09T17:49:27.298Z,79.91
2018-02-09T17:51:53.074Z,80.12
2018-02-09T17:54:18.889Z,79.99
2018-02-09T17:56:44.671Z,80.03
2018-02-09T17:59:10.458Z,79.77
2018-02-09T18:01:36.246Z,80.53
2018-02-09T18:04:02.063Z,81.06
2018-02-09T18:06:27.877Z,80.97
2018-02-09T18:08:53.690Z,80.93
2018-02-09T18:11:19.480Z,81.19
2018-02-09T18:13:45.266Z,80.99
2018-02-09T18:16:11.086Z,81.37
2018-02-09T18:18:36.875Z,81.42
2018-02-09T18:21:02.694Z,81.28
2018-02-09T18:23:28.509Z,81.13
2018-02-09T18:25:54.293Z,82.05
2018-02-09T18:28:20.082Z,81.90
2018-02-09T18:30:45.907Z,82.04
2018-02-09T18:33:11.690Z,81.84
2018-02-09T18:35:37.509Z,81.77
2018-02-09T18:38:03.478Z,81.87
2018-02-09T18:40:29.300Z,82.45
2018-02-09T18:42:55.088Z,82.13
2018-02-09T18:45:21.246Z,82.42
2018-02-09T18:47:47.026Z,82.76
2018-02-09T18:50:12.801Z,82.34
2018-02-09T18:52:38.589Z,82.13
2018-02-09T18:55:04.374Z,82.04
2018-02-09T18:57:30.145Z,82.50
2018-02-09T18:59:55.948Z,82.86
2018-02-09T19:02:21.730Z,83.02
2018-02-09T19:04:47.517Z,83.39
2018-02-09T19:07:13.342Z,82.98
2018-02-09T19:09:39.124Z,82.68
2018-02-09T19:12:04.909Z,83.29
2018-02-09T19:14:30.858Z,83.48
2018-02-09T19:16:56.633Z,83.62
2018-02-09T19:19:22.427Z,83.84
2018-02-09T19:21:48.253Z,83.90
2018-02-09T19:24:14.026Z,84.19
2018-02-09T19:26:41.045Z,84.44
2018-02-09T19:29:06.862Z,84.33
2018-02-09T19:31:32.786Z,84.65
2018-02-09T19:33:58.582Z,84.56
2018-02-09T19:36:25.040Z,84.41
2018-02-09T19:38:50.826Z,84.72
2018-02-09T19:41:17.180Z,84.87
2018-02-09T19:43:43.007Z,85.29
2018-02-09T19:46:09.626Z,85.74
2018-02-09T19:48:35.419Z,86.20
2018-02-09T19:51:02.196Z,86.11
2018-02-09T19:53:27.991Z,86.27
2018-02-09T19:55:54.118Z,86.07
2018-02-09T19:58:20.306Z,86.09
2018-02-09T20:00:46.595Z,86.00
2018-02-09T20:03:12.385Z,86.41
2018-02-09T20:05:38.761Z,86.39
2018-02-09T20:08:04.548Z,86.54
2018-02-09T20:10:31.111Z,86.39
2018-02-09T20:12:56.955Z,86.38
2018-02-09T20:15:22.737Z,86.12
2018-02-09T20:17:48.655Z,86.64
2018-02-09T20:20:14.447Z,86.45
2018-02-09T20:22:40.242Z,86.73
2018-02-09T20:25:06.130Z,87.09
2018-02-09T20:27:31.907Z,87.09
2018-02-09T20:29:57.699Z,87.38
2018-02-09T20:32:23.502Z,87.46
2018-02-09T20:34:49.302Z,87.78
2018-02-09T20:37:15.111Z,88.23
2018-02-09T20:39:41.031Z,88.06
2018-02-09T20:42:06.828Z,87.71
2018-02-09T20:44:32.610Z,87.50
2018-02-09T20:46:58.410Z,87.38
2018-02-09T20:49:24.234Z,87.09
2018-02-09T20:51:50.059Z,87.13
2018-02-09T20:54:15.848Z,86.95
2018-02-09T20:56:41.932Z,86.82
2018-02-09T20:59:07.720Z,86.62
2018-02-09T21:01:33.603Z,86.83
2018-02-09T21:03:59.648Z,86.74
2018-02-09T21:06:25.455Z,87.46
2018-02-09T21:08:51.512Z,87.63
2018-02-09T21:11:17.602Z,87.38
2018-02-09T21:13:43.735Z,86.92
2018-02-09T21:16:09.593Z,87.37
2018-02-09T21:18:35.605Z,87.19
2018-02-09T21:21:01.488Z,87.28
2018-02-09T21:23:27.283Z,87.08
2018-02-09T21:25:53.347Z,86.89
2018-02-09T21:28:19.127Z,86.95
2018-02-09T21:30:45.103Z,87.04
2018-02-09T21:33:11.014Z,86.90
2018-02-09T21:35:37.250Z,86.98
2018-02-09T21:38:03.049Z,87.17
2018-02-09T21:40:28.833Z,87.37
2018-02-09T21:42:54.638Z,87.66
2018-02-09T21:45:20.438Z,87.75
2018-02-09T21:47:46.226Z,88.12
2018-02-09T21:50:12.002Z,87.82
2018-02-09T21:52:38.622Z,87.34
2018-02-09T21:55:04.427Z,87.05
2018-02-09T21:57:30.611Z,87.27
2018-02-09T21:59:56.475Z,87.10
2018-02-09T22:02:22.474Z,87.27
2018-02-09T22:04:48.265Z,87.34
2018-02-09T22:07:14.568Z,95.59
2018-02-09T22:09:40.341Z,83.22
2018-02-09T22:12:08.640Z,80.04
2018-02-09T22:14:34.472Z,73.61
2018-02-09T22:17:00.251Z,70.85
2018-02-09T22:19:26.030Z,68.65
2018-02-09T22:21:51.937Z,69.11
2018-02-09T22:24:17.747Z,69.06
2018-02-09T22:26:43.925Z,69.25
2018-02-09T22:29:09.724Z,70.18
2018-02-09T22:31:35.509Z,70.49
2018-02-09T22:34:01.290Z,65.82
2018-02-09T22:36:27.078Z,68.59
2018-02-09T22:38:52.922Z,70.11
2018-02-09T22:41:18.694Z,76.25
2018-02-09T22:43:44.856Z,79.10
2018-02-09T22:46:10.635Z,80.97
2018-02-09T22:48:36.406Z,82.75
2018-02-09T22:51:02.233Z,83.57
2018-02-09T22:53:28.066Z,84.52
2018-02-09T22:55:53.805Z,85.60
2018-02-09T22:58:19.606Z,85.91
2018-02-09T23:00:45.385Z,86.60
2018-02-09T23:03:11.704Z,86.85
2018-02-09T23:05:37.510Z,86.98
2018-02-09T23:08:03.960Z,87.21
2018-02-09T23:10:29.798Z,87.42
2018-02-09T23:12:56.108Z,87.74
2018-02-09T23:15:21.969Z,88.13
2018-02-09T23:17:48.134Z,88.04
2018-02-09T23:20:14.215Z,88.29
2018-02-09T23:22:40.611Z,88.45
2018-02-09T23:25:06.522Z,88.60
2018-02-09T23:27:32.454Z,88.76
2018-02-09T23:29:58.566Z,88.76
2018-02-09T23:32:24.347Z,88.47
2018-02-09T23:34:50.414Z,88.42
2018-02-09T23:37:16.193Z,89.01
2018-02-09T23:39:41.981Z,93.62
2018-02-09T23:42:08.545Z,96.19
2018-02-09T23:44:34.330Z,95.91
2018-02-09T23:47:01.047Z,95.26
2018-02-09T23:49:26.849Z,93.07
2018-02-09T23:51:53.433Z,93.00
2018-02-09T23:54:19.216Z,90.69
2018-02-09T23:56:46.174Z,90.30
2018-02-09T23:59:12.493Z,90.32
